Time;durP1;ratioP1;P1;durP2;ratioP2;P2;SDS_P1;SDS_P2;PMS_P1;PMS_P2;Temp;Humidity;BMP_temperature;BMP_pressure;BME280_temperature;BME280_humidity;BME280_pressure;Samples;Min_cycle;Max_cycle;Signal;HPM_P1;HPM_P2
2023/09/12 00:01:24;;;;;;;;;;;;;;;21.32;56.83;97150.77;593877;239;65714;-67
2023/09/12 00:03:51;;;;;;;;;;;;;;;21.32;57.14;97156.11;593985;239;66997;-67
2023/09/12 00:06:19;;;;;;;;;;;;;;;21.32;56.26;97156.11;593929;239;62764;-67
2023/09/12 00:08:46;;;;;;;;;;;;;;;21.32;56.88;97150.77;593940;239;64834;-67
2023/09/12 00:11:14;;;;;;;;;;;;;;;21.32;56.73;97147.30;593957;239;67116;-67
2023/09/12 00:13:42;;;;;;;;;;;;;;;21.32;56.83;97150.77;593902;239;62624;-67
2023/09/12 00:16:12;;;;;;;;;;;;;;;21.32;58.14;97148.09;593943;239;67349;-67
2023/09/12 00:18:40;;;;;;;;;;;;;;;21.31;56.37;97149.17;593937;239;64948;-68
2023/09/12 00:21:07;;;;;;;;;;;;;;;21.32;56.43;97149.97;593957;239;62691;-67
2023/09/12 00:23:35;;;;;;;;;;;;;;;21.33;56.71;97154.23;593925;239;64927;-67
2023/09/12 00:26:02;;;;;;;;;;;;;;;21.31;56.47;97143.00;593921;239;64611;-67
2023/09/12 00:28:30;;;;;;;;;;;;;;;21.31;56.98;97151.02;593910;239;65087;-67
2023/09/12 00:30:57;;;;;;;;;;;;;;;21.30;57.11;97142.20;593918;238;67399;-67
2023/09/12 00:33:25;;;;;;;;;;;;;;;21.30;56.45;97144.88;593945;239;66777;-67
2023/09/12 00:35:52;;;;;;;;;;;;;;;21.30;56.65;97150.22;593931;237;62653;-67
2023/09/12 00:38:20;;;;;;;;;;;;;;;21.31;56.33;97153.69;593947;239;64547;-67
2023/09/12 00:40:47;;;;;;;;;;;;;;;21.31;56.38;97153.69;593883;239;67441;-67
2023/09/12 00:43:16;;;;;;;;;;;;;;;21.30;56.39;97147.55;593958;239;62660;-68
2023/09/12 00:45:44;;;;;;;;;;;;;;;21.30;57.05;97150.22;593931;237;64512;-67
2023/09/12 00:48:13;;;;;;;;;;;;;;;21.29;56.47;97145.95;593905;239;64592;-67
2023/09/12 00:50:41;;;;;;;;;;;;;;;21.29;56.56;97140.61;593929;239;65032;-67
2023/09/12 00:53:09;;;;;;;;;;;;;;;21.29;57.03;97141.41;593903;239;64760;-67
2023/09/12 00:55:38;;;;;;;;;;;;;;;21.29;56.56;97144.08;593965;236;67248;-67
2023/09/12 00:58:07;;;;;;;;;;;;;;;21.29;57.39;97140.61;593939;239;65742;-67
2023/09/12 01:00:35;;;;;;;;;;;;;;;21.29;57.76;97145.95;593908;239;65331;-67
2023/09/12 01:03:03;;;;;;;;;;;;;;;21.30;58.71;97147.55;593837;239;67305;-66
2023/09/12 01:05:30;;;;;;;;;;;;;;;21.28;56.68;97144.38;593899;239;62793;-66
2023/09/12 01:07:59;;;;;;;;;;;;;;;21.28;55.90;97147.05;593940;239;67579;-67
2023/09/12 01:10:28;;;;;;;;;;;;;;;21.29;56.78;97145.95;593909;239;64687;-67
2023/09/12 01:12:55;;;;;;;;;;;;;;;21.28;56.83;97150.51;593915;239;63527;-67
2023/09/12 01:15:23;;;;;;;;;;;;;;;21.27;56.32;97145.42;593912;239;67352;-67
2023/09/12 01:17:51;;;;;;;;;;;;;;;21.29;56.29;97148.63;593915;239;64372;-67
2023/09/12 01:20:23;;;;;;;;;;;;;;;21.28;56.56;97147.05;593981;239;63034;-67
2023/09/12 01:22:57;;;;;;;;;;;;;;;21.27;55.74;97146.22;593928;239;66659;-67
2023/09/12 01:25:29;;;;;;;;;;;;;;;21.28;56.33;97147.84;593804;239;67236;-67
2023/09/12 01:27:58;;;;;;;;;;;;;;;21.28;55.96;97147.05;593921;239;64997;-67
2023/09/12 01:30:27;;;;;;;;;;;;;;;21.28;56.17;97149.72;593874;239;64725;-67
2023/09/12 01:32:55;;;;;;;;;;;;;;;21.27;56.09;97142.75;593888;239;65023;-67
2023/09/12 01:35:23;;;;;;;;;;;;;;;21.27;56.42;97148.89;593945;239;65299;-67
2023/09/12 01:37:50;;;;;;;;;;;;;;;21.27;57.59;97158.78;593926;239;67966;-67
2023/09/12 01:40:18;;;;;;;;;;;;;;;21.26;56.81;97151.84;593899;239;66924;-67
2023/09/12 01:42:47;;;;;;;;;;;;;;;21.26;56.06;97149.17;593928;239;65026;-67
2023/09/12 01:45:16;;;;;;;;;;;;;;;21.25;56.61;97152.89;593919;239;67337;-68
2023/09/12 01:47:45;;;;;;;;;;;;;;;21.25;56.57;97150.22;593938;239;66651;-69
2023/09/12 01:50:13;;;;;;;;;;;;;;;21.26;56.55;97151.84;593912;239;62504;-67
2023/09/12 01:52:41;;;;;;;;;;;;;;;21.26;57.97;97151.84;593923;239;67184;-67
2023/09/12 01:55:11;;;;;;;;;;;;;;;21.25;56.49;97147.55;593864;239;65075;-67
2023/09/12 01:57:38;;;;;;;;;;;;;;;21.25;56.37;97150.22;593904;239;63121;-67
2023/09/12 02:00:07;;;;;;;;;;;;;;;21.25;56.82;97145.70;593956;239;67286;-67
2023/09/12 02:02:35;;;;;;;;;;;;;;;21.16;56.61;97141.16;593977;239;67038;-67
2023/09/12 02:05:04;;;;;;;;;;;;;;;21.25;56.61;97150.22;593945;239;65812;-67
2023/09/12 02:07:33;;;;;;;;;;;;;;;21.25;56.58;97144.88;593800;239;67189;-67
2023/09/12 02:10:01;;;;;;;;;;;;;;;21.25;57.35;97151.05;593945;239;66787;-68
2023/09/12 02:12:28;;;;;;;;;;;;;;;21.25;57.44;97150.22;593971;239;65041;-67
2023/09/12 02:14:56;;;;;;;;;;;;;;;21.25;57.12;97152.89;594015;239;66535;-68
2023/09/12 02:17:23;;;;;;;;;;;;;;;21.24;56.16;97145.96;593951;239;66703;-67
2023/09/12 02:19:51;;;;;;;;;;;;;;;21.24;56.65;97154.77;593958;239;66088;-68
2023/09/12 02:22:18;;;;;;;;;;;;;;;21.24;55.92;97143.29;593956;239;64515;-67
2023/09/12 02:24:46;;;;;;;;;;;;;;;21.24;55.77;97154.77;593970;239;65500;-67
2023/09/12 02:27:13;;;;;;;;;;;;;;;21.23;55.76;97142.49;593974;239;65190;-67
2023/09/12 02:29:42;;;;;;;;;;;;;;;21.24;55.80;97144.08;593957;239;66801;-67
2023/09/12 02:32:10;;;;;;;;;;;;;;;21.24;55.47;97148.64;593930;238;66776;-67
2023/09/12 02:34:38;;;;;;;;;;;;;;;21.24;55.38;97145.96;593933;239;65144;-67
2023/09/12 02:37:05;;;;;;;;;;;;;;;21.24;56.35;97148.64;593955;239;64988;-68
2023/09/12 02:39:33;;;;;;;;;;;;;;;21.24;57.90;97140.62;593982;239;64714;-67
2023/09/12 02:42:00;;;;;;;;;;;;;;;21.23;57.01;97144.38;593942;239;65437;-68
2023/09/12 02:44:28;;;;;;;;;;;;;;;21.22;59.02;97140.88;593913;239;67201;-68
2023/09/12 02:46:55;;;;;;;;;;;;;;;21.22;60.53;97146.22;593941;239;66916;-68
2023/09/12 02:49:23;;;;;;;;;;;;;;;21.21;59.43;97141.95;593949;239;62561;-68
2023/09/12 02:51:50;;;;;;;;;;;;;;;21.21;58.92;97141.16;593981;239;67262;-67
2023/09/12 02:54:18;;;;;;;;;;;;;;;21.22;59.53;97140.08;593885;239;67231;-68
2023/09/12 02:56:45;;;;;;;;;;;;;;;21.21;57.60;97143.83;593925;239;65922;-67
2023/09/12 02:59:13;;;;;;;;;;;;;;;21.20;59.22;97143.03;593942;239;68105;-67
2023/09/12 03:01:41;;;;;;;;;;;;;;;21.21;59.97;97143.83;593950;239;64695;-62
2023/09/12 03:04:08;;;;;;;;;;;;;;;21.20;58.00;97140.36;593947;239;65621;-62
2023/09/12 03:06:36;;;;;;;;;;;;;;;21.19;57.00;97138.74;593977;239;68196;-63
2023/09/12 03:09:04;;;;;;;;;;;;;;;21.21;56.46;97138.48;593907;239;67256;-62
2023/09/12 03:11:32;;;;;;;;;;;;;;;21.20;57.20;97137.69;593913;239;62682;-62
2023/09/12 03:13:59;;;;;;;;;;;;;;;21.20;56.76;97144.91;593934;239;65684;-62
2023/09/12 03:16:27;;;;;;;;;;;;;;;21.20;56.46;97147.58;593939;239;67610;-62
2023/09/12 03:18:54;;;;;;;;;;;;;;;21.20;57.79;97145.70;593969;239;64989;-62
2023/09/12 03:21:22;;;;;;;;;;;;;;;21.19;56.54;97145.96;593899;239;64970;-62
2023/09/12 03:23:50;;;;;;;;;;;;;;;21.19;57.08;97146.76;593931;239;67026;-62
2023/09/12 03:26:17;;;;;;;;;;;;;;;21.18;56.92;97142.50;593941;239;63876;-62
2023/09/12 03:28:45;;;;;;;;;;;;;;;21.19;57.04;97145.96;593934;239;67450;-63
2023/09/12 03:31:14;;;;;;;;;;;;;;;21.20;56.75;97150.25;593930;238;64516;-67
2023/09/12 03:33:42;;;;;;;;;;;;;;;21.19;57.91;97149.43;593902;239;63887;-68
2023/09/12 03:36:10;;;;;;;;;;;;;;;21.19;56.91;97145.96;593932;239;64701;-69
2023/09/12 03:38:38;;;;;;;;;;;;;;;21.19;56.39;97153.98;593919;239;66814;-68
2023/09/12 03:41:05;;;;;;;;;;;;;;;21.19;57.51;97156.66;593941;239;63899;-68
2023/09/12 03:43:34;;;;;;;;;;;;;;;21.20;57.69;97155.60;593985;239;67198;-67
2023/09/12 03:46:03;;;;;;;;;;;;;;;21.18;56.21;97155.86;593901;237;66957;-67
2023/09/12 03:48:31;;;;;;;;;;;;;;;21.19;57.27;97162.00;593888;239;65063;-67
2023/09/12 03:50:59;;;;;;;;;;;;;;;21.18;57.71;97155.06;593965;239;65064;-67
2023/09/12 03:53:27;;;;;;;;;;;;;;;21.18;58.18;97163.08;593924;239;67218;-67
2023/09/12 03:55:55;;;;;;;;;;;;;;;21.18;57.74;97157.73;593916;239;62660;-67
2023/09/12 03:58:23;;;;;;;;;;;;;;;21.18;56.54;97149.72;593975;239;65913;-68
2023/09/12 04:00:50;;;;;;;;;;;;;;;21.18;57.01;97160.41;593918;239;67501;-67
2023/09/12 04:03:18;;;;;;;;;;;;;;;21.17;56.99;97154.27;593921;239;65098;-67
2023/09/12 04:05:47;;;;;;;;;;;;;;;21.17;57.55;97156.11;593943;239;64692;-67
2023/09/12 04:08:14;;;;;;;;;;;;;;;21.17;57.62;97158.78;593921;239;66946;-68
2023/09/12 04:10:43;;;;;;;;;;;;;;;21.16;56.41;97149.17;593980;239;65065;-67
2023/09/12 04:13:10;;;;;;;;;;;;;;;21.16;56.26;97160.66;593940;237;67222;-67
2023/09/12 04:15:38;;;;;;;;;;;;;;;21.16;57.37;97157.20;593910;239;66576;-68
2023/09/12 04:18:06;;;;;;;;;;;;;;;21.16;57.29;97157.98;593939;239;65091;-67
2023/09/12 04:20:34;;;;;;;;;;;;;;;21.16;56.63;97149.97;593940;237;64823;-67
2023/09/12 04:23:02;;;;;;;;;;;;;;;21.16;56.71;97154.52;593939;239;67358;-68
2023/09/12 04:25:30;;;;;;;;;;;;;;;21.15;57.38;97155.60;593928;239;65229;-68
2023/09/12 04:27:58;;;;;;;;;;;;;;;21.16;57.38;97154.52;593923;239;64992;-68
2023/09/12 04:30:26;;;;;;;;;;;;;;;21.15;57.02;97161.74;593879;236;67751;-67
2023/09/12 04:32:54;;;;;;;;;;;;;;;21.15;55.69;97158.27;593889;238;65160;-67
2023/09/12 04:35:22;;;;;;;;;;;;;;;21.14;56.59;97153.98;593970;239;64539;-67
2023/09/12 04:37:50;;;;;;;;;;;;;;;21.15;57.20;97158.27;593923;239;67491;-67
2023/09/12 04:40:18;;;;;;;;;;;;;;;21.15;57.81;97159.07;593946;239;65630;-68
2023/09/12 04:42:45;;;;;;;;;;;;;;;21.15;56.63;97168.96;593910;239;64661;-67
2023/09/12 04:45:13;;;;;;;;;;;;;;;21.15;55.78;97168.96;593917;239;66958;-67
2023/09/12 04:47:41;;;;;;;;;;;;;;;21.14;55.78;97164.67;593944;239;62588;-67
2023/09/12 04:50:09;;;;;;;;;;;;;;;21.15;57.04;97166.29;593970;239;67412;-67
2023/09/12 04:52:37;;;;;;;;;;;;;;;21.15;57.88;97166.29;593901;239;64664;-67
2023/09/12 04:55:04;;;;;;;;;;;;;;;21.14;56.28;97167.34;593896;239;64907;-67
2023/09/12 04:57:33;;;;;;;;;;;;;;;21.14;55.49;97168.14;593925;239;67195;-68
2023/09/12 05:00:00;;;;;;;;;;;;;;;21.14;56.76;97164.67;593896;239;67033;-67
2023/09/12 05:02:28;;;;;;;;;;;;;;;21.14;56.32;97168.14;593957;236;65191;-67
2023/09/12 05:04:56;;;;;;;;;;;;;;;21.13;55.96;97174.56;593952;239;67199;-68
2023/09/12 05:07:24;;;;;;;;;;;;;;;21.13;57.11;97169.22;593888;239;67029;-67
2023/09/12 05:09:52;;;;;;;;;;;;;;;21.13;55.79;97168.42;593905;236;63009;-68
2023/09/12 05:12:20;;;;;;;;;;;;;;;21.13;56.46;97165.75;593897;239;67905;-68
2023/09/12 05:14:48;;;;;;;;;;;;;;;21.12;56.60;97167.63;593959;239;66993;-67
2023/09/12 05:17:15;;;;;;;;;;;;;;;21.13;56.95;97168.42;593928;239;62745;-67
2023/09/12 05:19:43;;;;;;;;;;;;;;;21.13;57.79;97169.22;593926;239;67296;-68
2023/09/12 05:22:10;;;;;;;;;;;;;;;21.13;55.99;97163.08;593868;239;67004;-67
2023/09/12 05:24:39;;;;;;;;;;;;;;;21.13;56.58;97165.75;593929;239;63754;-67
2023/09/12 05:27:07;;;;;;;;;;;;;;;21.13;55.87;97173.77;593964;239;65124;-69
2023/09/12 05:29:34;;;;;;;;;;;;;;;21.14;55.22;97170.02;593922;239;66656;-62
2023/09/12 05:32:02;;;;;;;;;;;;;;;21.13;55.75;97163.08;593887;238;65954;-62
2023/09/12 05:34:30;;;;;;;;;;;;;;;21.13;56.34;97168.42;593926;239;64878;-62
2023/09/12 05:36:58;;;;;;;;;;;;;;;21.14;56.93;97159.33;593887;239;67567;-68
2023/09/12 05:39:26;;;;;;;;;;;;;;;21.13;55.24;97165.75;593944;239;62506;-62
2023/09/12 05:41:53;;;;;;;;;;;;;;;21.13;55.42;97168.42;593996;236;67892;-62
2023/09/12 05:44:21;;;;;;;;;;;;;;;21.13;56.25;97168.42;593941;239;67055;-62
2023/09/12 05:46:48;;;;;;;;;;;;;;;21.13;57.54;97168.42;593948;239;64860;-62
2023/09/12 05:49:16;;;;;;;;;;;;;;;21.13;55.79;97163.08;593904;239;65203;-62
2023/09/12 05:51:44;;;;;;;;;;;;;;;21.12;55.69;97162.28;593924;239;67469;-62
2023/09/12 05:54:13;;;;;;;;;;;;;;;21.13;55.23;97163.08;593967;237;65027;-62
2023/09/12 05:56:41;;;;;;;;;;;;;;;21.13;55.28;97168.42;593893;239;66800;-64
2023/09/12 05:59:09;;;;;;;;;;;;;;;21.14;54.62;97167.34;593904;239;66436;-67
2023/09/12 06:01:36;;;;;;;;;;;;;;;21.14;54.56;97164.67;593903;239;62995;-67
2023/09/12 06:04:04;;;;;;;;;;;;;;;21.13;54.41;97163.88;593234;237;67480;-66
2023/09/12 06:06:32;;;;;;;;;;;;;;;21.14;54.82;97159.33;592311;239;65826;-64
2023/09/12 06:08:59;;;;;;;;;;;;;;;21.13;55.07;97158.53;588492;241;64753;-64
2023/09/12 06:11:27;;;;;;;;;;;;;;;21.15;55.31;97160.95;588392;241;67318;-65
2023/09/12 06:13:54;;;;;;;;;;;;;;;21.14;57.05;97162.00;588473;241;66913;-63
2023/09/12 06:16:22;;;;;;;;;;;;;;;21.13;59.99;97165.75;588462;238;65296;-63
2023/09/12 06:18:49;;;;;;;;;;;;;;;21.12;58.76;97161.48;588467;241;66678;-64
2023/09/12 06:21:17;;;;;;;;;;;;;;;21.09;58.27;97168.16;588511;241;66760;-64
2023/09/12 06:23:45;;;;;;;;;;;;;;;21.07;56.51;97159.61;588522;241;62964;-64
2023/09/12 06:26:14;;;;;;;;;;;;;;;21.09;56.60;97170.02;588450;241;67650;-64
2023/09/12 06:28:41;;;;;;;;;;;;;;;21.11;58.25;97167.88;589987;236;66601;-63
2023/09/12 06:31:09;;;;;;;;;;;;;;;21.11;57.21;97171.34;590824;236;62738;-66
2023/09/12 06:33:37;;;;;;;;;;;;;;;21.11;56.88;97168.67;586480;239;64771;-63
2023/09/12 06:36:05;;;;;;;;;;;;;;;21.16;54.08;97168.68;591102;239;66786;-63
2023/09/12 06:38:32;;;;;;;;;;;;;;;21.18;53.82;97171.09;591523;239;65072;-63
2023/09/12 06:41:00;;;;;;;;;;;;;;;21.20;55.63;97169.77;588443;241;66760;-63
2023/09/12 06:43:28;;;;;;;;;;;;;;;21.21;57.67;97174.03;590355;239;64457;-63
2023/09/12 06:45:55;;;;;;;;;;;;;;;21.23;60.45;97171.09;593924;239;65340;-63
2023/09/12 06:48:23;;;;;;;;;;;;;;;21.23;60.33;97171.09;591078;239;67184;-63
2023/09/12 06:50:50;;;;;;;;;;;;;;;21.24;60.21;97173.48;589136;239;67369;-63
2023/09/12 06:53:18;;;;;;;;;;;;;;;21.21;55.80;97174.03;593842;239;62879;-64
2023/09/12 06:55:45;;;;;;;;;;;;;;;21.22;61.17;97174.82;589864;239;64750;-67
2023/09/12 06:58:13;;;;;;;;;;;;;;;21.21;61.92;97176.70;587701;241;67290;-69
2023/09/12 07:00:40;;;;;;;;;;;;;;;21.19;57.24;97172.69;588444;241;65119;-69
2023/09/12 07:03:08;;;;;;;;;;;;;;;21.20;60.38;97182.33;588427;241;67020;-69
2023/09/12 07:05:38;;;;;;;;;;;;;;;21.20;61.17;97174.31;588467;241;64958;-69
2023/09/12 07:08:06;;;;;;;;;;;;;;;21.18;60.55;97177.23;588537;241;65270;-69
2023/09/12 07:10:34;;;;;;;;;;;;;;;21.17;58.31;97180.98;588458;241;64706;-69
2023/09/12 07:13:02;;;;;;;;;;;;;;;21.19;57.91;97183.38;588496;241;65623;-69
2023/09/12 07:15:29;;;;;;;;;;;;;;;21.19;60.97;97172.69;588419;241;65091;-69
2023/09/12 07:17:59;;;;;;;;;;;;;;;21.19;61.08;97172.69;588345;241;67291;-70
2023/09/12 07:20:26;;;;;;;;;;;;;;;21.18;60.17;97177.23;588464;241;64966;-64
2023/09/12 07:22:53;;;;;;;;;;;;;;;21.19;61.75;97180.70;588432;241;62929;-64
2023/09/12 07:25:23;;;;;;;;;;;;;;;21.19;60.87;97172.69;588450;238;67331;-64
2023/09/12 07:27:53;;;;;;;;;;;;;;;21.19;61.32;97172.69;588450;241;66893;-65
2023/09/12 07:30:21;;;;;;;;;;;;;;;21.20;61.04;97171.64;588428;241;62696;-64
2023/09/12 07:32:50;;;;;;;;;;;;;;;21.19;56.62;97167.34;596594;237;65021;-64
2023/09/12 07:35:17;;;;;;;;;;;;;;;21.21;55.96;97170.55;597036;237;67162;-64
2023/09/12 07:37:45;;;;;;;;;;;;;;;21.21;56.21;97165.21;596910;235;66047;-64
2023/09/12 07:40:12;;;;;;;;;;;;;;;21.23;57.69;97168.42;597015;237;67197;-64
2023/09/12 07:42:40;;;;;;;;;;;;;;;21.23;60.57;97168.42;597003;237;64991;-70
2023/09/12 07:45:08;;;;;;;;;;;;;;;21.23;62.03;97163.08;596974;237;66066;-71
2023/09/12 07:47:35;;;;;;;;;;;;;;;21.22;62.31;97169.47;597059;237;67420;-69
2023/09/12 07:50:04;;;;;;;;;;;;;;;21.22;61.09;97158.78;597005;237;66809;-69
2023/09/12 07:52:31;;;;;;;;;;;;;;;21.21;61.19;97159.87;596979;237;65020;-68
2023/09/12 07:55:02;;;;;;;;;;;;;;;21.21;61.52;97157.20;597007;237;64794;-69
2023/09/12 07:57:30;;;;;;;;;;;;;;;21.21;61.20;97152.64;596981;237;66831;-70
2023/09/12 07:59:58;;;;;;;;;;;;;;;21.20;61.70;97147.58;597015;237;64945;-69
2023/09/12 08:02:25;;;;;;;;;;;;;;;21.20;61.21;97144.91;597079;237;64722;-69
2023/09/12 08:04:55;;;;;;;;;;;;;;;21.20;61.65;97148.38;596883;237;66983;-70
2023/09/12 08:07:23;;;;;;;;;;;;;;;21.21;57.15;97149.97;597018;237;67377;-70
2023/09/12 08:09:54;;;;;;;;;;;;;;;21.22;56.11;97151.56;597010;237;67410;-70
2023/09/12 08:12:22;;;;;;;;;;;;;;;21.24;57.19;97148.64;596959;237;67281;-70
2023/09/12 08:14:50;;;;;;;;;;;;;;;21.23;57.88;97147.84;596968;237;61560;-70
2023/09/12 08:17:17;;;;;;;;;;;;;;;21.25;58.59;97144.88;596955;237;67138;-70
2023/09/12 08:19:45;;;;;;;;;;;;;;;21.25;58.77;97148.38;596972;237;66894;-70
2023/09/12 08:22:13;;;;;;;;;;;;;;;21.25;59.38;97150.22;597028;237;64912;-70
2023/09/12 08:24:40;;;;;;;;;;;;;;;21.24;60.33;97141.41;596949;237;66799;-70
2023/09/12 08:27:09;;;;;;;;;;;;;;;21.25;60.04;97137.69;597011;237;64967;-69
2023/09/12 08:29:38;;;;;;;;;;;;;;;21.26;61.10;97141.16;596975;237;65045;-70
2023/09/12 08:32:06;;;;;;;;;;;;;;;21.24;60.56;97140.62;599448;236;67702;-70
2023/09/12 08:34:33;;;;;;;;;;;;;;;21.24;61.94;97143.29;600593;236;67064;-70
2023/09/12 08:37:01;;;;;;;;;;;;;;;21.24;57.66;97135.27;600773;236;65114;-68
2023/09/12 08:39:30;;;;;;;;;;;;;;;21.25;57.30;97136.86;600816;236;67340;-70
2023/09/12 08:42:00;;;;;;;;;;;;;;;21.26;56.74;97133.14;600360;236;67672;-70
2023/09/12 08:44:28;;;;;;;;;;;;;;;21.28;56.58;97141.70;600755;236;65076;-69
2023/09/12 08:46:55;;;;;;;;;;;;;;;21.28;56.64;97136.35;600787;236;64864;-64
2023/09/12 08:49:23;;;;;;;;;;;;;;;21.28;56.66;97133.67;600709;236;67043;-64
2023/09/12 08:51:50;;;;;;;;;;;;;;;21.28;56.70;97125.66;600773;236;65110;-64
2023/09/12 08:54:18;;;;;;;;;;;;;;;21.29;56.74;97124.58;600794;236;67093;-63
2023/09/12 08:56:45;;;;;;;;;;;;;;;21.29;56.80;97128.05;600672;236;66878;-64
2023/09/12 08:59:13;;;;;;;;;;;;;;;21.30;56.81;97136.86;600758;236;65147;-62
2023/09/12 09:01:41;;;;;;;;;;;;;;;21.31;56.82;97145.67;600744;236;64461;-63
2023/09/12 09:04:09;;;;;;;;;;;;;;;21.31;56.88;97137.66;600702;236;67053;-65
2023/09/12 09:06:39;;;;;;;;;;;;;;;21.31;56.90;97137.66;600823;236;65048;-64
2023/09/12 09:09:07;;;;;;;;;;;;;;;21.31;56.98;97133.13;600727;236;65162;-63
2023/09/12 09:11:35;;;;;;;;;;;;;;;21.32;57.09;97131.25;600782;236;66902;-63
2023/09/12 09:14:03;;;;;;;;;;;;;;;21.31;57.15;97122.44;600772;236;64903;-64
2023/09/12 09:16:31;;;;;;;;;;;;;;;21.31;57.21;97138.48;600709;236;64807;-70
2023/09/12 09:18:59;;;;;;;;;;;;;;;21.32;57.30;97141.95;600727;236;67205;-69
2023/09/12 09:21:30;;;;;;;;;;;;;;;21.32;57.34;97134.73;595730;236;64873;-68
2023/09/12 09:23:59;;;;;;;;;;;;;;;21.32;57.36;97134.73;595147;236;64625;-69
2023/09/12 09:26:29;;;;;;;;;;;;;;;21.32;57.36;97134.73;593915;235;67063;-68
2023/09/12 09:29:10;;;;;;;;;;;;;;;21.32;57.39;97129.38;594725;238;66074;-68
2023/09/12 09:31:39;;;;;;;;;;;;;;;21.33;57.49;97124.83;593806;238;67223;-68
2023/09/12 09:34:08;;;;;;;;;;;;;;;21.33;57.56;97124.83;592957;239;67314;-65
2023/09/12 09:36:36;;;;;;;;;;;;;;;21.32;57.69;97113.34;593840;238;65031;-68
2023/09/12 09:39:04;;;;;;;;;;;;;;;21.33;57.78;97108.79;593805;239;64585;-69
2023/09/12 09:41:32;;;;;;;;;;;;;;;21.34;58.50;97113.88;593881;239;67049;-67
2023/09/12 09:44:00;;;;;;;;;;;;;;;21.33;57.92;97120.28;593842;239;62760;-69
2023/09/12 09:46:28;;;;;;;;;;;;;;;21.33;57.89;97109.59;593866;239;67395;-69
2023/09/12 09:48:55;;;;;;;;;;;;;;;21.34;58.27;97113.88;593776;239;66847;-69
2023/09/12 09:51:25;;;;;;;;;;;;;;;21.33;58.73;97117.60;593820;236;62811;-69
2023/09/12 09:53:53;;;;;;;;;;;;;;;21.33;59.40;97114.93;593816;239;66812;-69
2023/09/12 09:56:20;;;;;;;;;;;;;;;21.33;59.05;97116.81;593796;239;64903;-69
2023/09/12 09:58:49;;;;;;;;;;;;;;;21.33;59.12;97112.26;593711;239;62803;-69
2023/09/12 10:01:23;;;;;;;;;;;;;;;21.33;59.04;97114.93;593840;239;67040;-69
2023/09/12 10:03:48;;;;;;;;;;;;;;;21.33;59.94;97106.11;593600;239;67066;-69
2023/09/12 10:06:19;;;;;;;;;;;;;;;21.34;60.01;97113.08;593861;239;65005;-69
2023/09/12 10:08:49;;;;;;;;;;;;;;;21.33;59.80;97114.13;593815;239;64961;-70
2023/09/12 10:11:18;;;;;;;;;;;;;;;21.33;59.26;97112.26;593848;239;67089;-68
2023/09/12 10:13:47;;;;;;;;;;;;;;;21.32;58.19;97116.02;593848;239;64929;-70
2023/09/12 10:16:16;;;;;;;;;;;;;;;21.33;58.70;97104.23;593068;239;67972;-70
2023/09/12 10:18:45;;;;;;;;;;;;;;;21.34;59.66;97105.06;593852;239;64440;-69
2023/09/12 10:21:14;;;;;;;;;;;;;;;21.33;60.53;97104.23;593645;239;62790;-70
2023/09/12 10:23:46;;;;;;;;;;;;;;;21.36;57.94;97102.89;593877;239;68132;-70
2023/09/12 10:26:14;;;;;;;;;;;;;;;21.37;58.03;97105.34;593852;239;66105;-70
2023/09/12 10:28:42;;;;;;;;;;;;;;;21.36;58.09;97098.38;593860;239;65302;-70
2023/09/12 10:31:11;;;;;;;;;;;;;;;21.37;58.25;97093.83;593840;237;66930;-69
2023/09/12 10:33:40;;;;;;;;;;;;;;;21.35;58.31;97086.06;594009;239;66866;-69
2023/09/12 10:36:09;;;;;;;;;;;;;;;21.36;58.43;97090.36;593957;239;62780;-72
2023/09/12 10:38:38;;;;;;;;;;;;;;;21.37;59.40;97089.30;593961;239;66981;-69
2023/09/12 10:41:08;;;;;;;;;;;;;;;21.36;59.17;97084.19;593972;239;67606;-69
2023/09/12 10:43:36;;;;;;;;;;;;;;;21.35;59.04;97091.41;593977;239;64897;-68
2023/09/12 10:46:04;;;;;;;;;;;;;;;21.35;59.05;97083.39;594031;239;66724;-67
2023/09/12 10:48:32;;;;;;;;;;;;;;;21.36;59.21;97082.34;593958;239;65123;-68
2023/09/12 10:51:01;;;;;;;;;;;;;;;21.36;59.16;97085.01;593979;239;63037;-69
2023/09/12 10:53:29;;;;;;;;;;;;;;;21.35;59.27;97079.92;593886;239;66776;-69
2023/09/12 10:56:01;;;;;;;;;;;;;;;21.36;59.08;97074.31;593950;239;64820;-69
2023/09/12 10:58:29;;;;;;;;;;;;;;;21.37;59.17;97072.44;592574;239;64944;-68
2023/09/12 11:01:14;;;;;;;;;;;;;;;21.35;59.04;97072.70;593756;239;67343;-69
2023/09/12 11:03:42;;;;;;;;;;;;;;;21.36;58.61;97078.84;592961;236;64939;-69
2023/09/12 11:06:11;;;;;;;;;;;;;;;21.36;59.07;97071.64;593634;239;64889;-69
2023/09/12 11:08:39;;;;;;;;;;;;;;;21.37;58.93;97067.92;593548;238;67386;-69
2023/09/12 11:11:22;;;;;;;;;;;;;;;21.35;59.16;97067.34;593928;239;67108;-69
2023/09/12 11:14:06;;;;;;;;;;;;;;;21.35;59.20;97067.34;593714;239;65101;-68
2023/09/12 11:16:34;;;;;;;;;;;;;;;21.38;59.80;97069.50;592965;239;68022;-69
2023/09/12 11:19:26;;;;;;;;;;;;;;;21.37;58.50;97053.73;588879;239;65821;-67
2023/09/12 11:21:55;;;;;;;;;;;;;;;21.36;58.58;97054.78;591333;239;65174;-68
2023/09/12 11:24:23;;;;;;;;;;;;;;;21.37;58.64;97057.22;592844;239;67396;-68
2023/09/12 11:26:55;;;;;;;;;;;;;;;21.35;58.65;97056.66;593528;239;64948;-66
2023/09/12 11:29:25;;;;;;;;;;;;;;;21.37;58.67;97059.07;593381;239;62782;-66
2023/09/12 11:32:02;;;;;;;;;;;;;;;21.37;58.45;97053.73;594967;238;67167;-66
2023/09/12 11:34:29;;;;;;;;;;;;;;;21.38;58.15;97052.67;596271;238;64915;-66
2023/09/12 11:37:03;;;;;;;;;;;;;;;21.38;54.91;97047.33;595216;237;63596;-67
2023/09/12 11:39:28;;;;;;;;;;;;;;;21.40;56.43;97048.66;592772;238;64866;-68
2023/09/12 11:41:59;;;;;;;;;;;;;;;21.41;57.89;97046.78;598366;236;64714;-68
2023/09/12 11:44:27;;;;;;;;;;;;;;;21.42;58.68;97043.05;592522;239;65103;-69
2023/09/12 11:46:55;;;;;;;;;;;;;;;21.41;58.59;97036.87;592565;239;65124;-69
2023/09/12 11:49:23;;;;;;;;;;;;;;;21.41;54.96;97036.08;598132;237;65284;-66
2023/09/12 11:51:51;;;;;;;;;;;;;;;21.42;58.42;97033.15;595791;236;66177;-68
2023/09/12 11:54:20;;;;;;;;;;;;;;;21.43;58.44;97028.59;592826;236;67203;-66
2023/09/12 11:56:48;;;;;;;;;;;;;;;21.42;58.55;97022.45;593072;236;65059;-72
2023/09/12 11:59:21;;;;;;;;;;;;;;;21.43;58.57;97017.91;595780;236;65074;-71
2023/09/12 12:01:49;;;;;;;;;;;;;;;21.43;57.26;97021.37;596720;236;67171;-69
2023/09/12 12:04:16;;;;;;;;;;;;;;;21.45;58.12;97026.46;595298;236;65055;-74
2023/09/12 12:06:44;;;;;;;;;;;;;;;21.43;58.55;97024.05;595570;236;63013;-73
2023/09/12 12:09:11;;;;;;;;;;;;;;;21.46;58.35;97023.50;595761;236;64354;-73
2023/09/12 12:11:39;;;;;;;;;;;;;;;21.47;57.98;97014.42;596391;236;66821;-74
2023/09/12 12:14:10;;;;;;;;;;;;;;;21.50;57.48;97016.55;597215;236;64008;-73
2023/09/12 12:16:38;;;;;;;;;;;;;;;21.52;57.95;97016.25;594875;236;67428;-72
2023/09/12 12:19:05;;;;;;;;;;;;;;;21.54;58.01;97007.97;596702;236;67329;-72
2023/09/12 12:21:33;;;;;;;;;;;;;;;21.55;57.58;97017.58;595736;236;64983;-72
2023/09/12 12:24:01;;;;;;;;;;;;;;;21.56;57.43;97011.97;596231;236;64813;-72
2023/09/12 12:26:29;;;;;;;;;;;;;;;21.57;57.13;97018.91;593006;235;67131;-71
2023/09/12 12:28:56;;;;;;;;;;;;;;;21.58;57.87;97017.85;593116;236;65073;-72
2023/09/12 12:31:24;;;;;;;;;;;;;;;21.59;57.94;97010.63;594199;237;65007;-71
2023/09/12 12:33:53;;;;;;;;;;;;;;;21.59;53.63;97015.97;596263;235;65055;-72
2023/09/12 12:36:21;;;;;;;;;;;;;;;21.61;56.81;97011.95;597145;237;62923;-72
2023/09/12 12:38:49;;;;;;;;;;;;;;;21.60;57.71;97017.56;597311;237;67204;-71
2023/09/12 12:41:17;;;;;;;;;;;;;;;21.63;56.57;97011.66;596803;237;64975;-71
2023/09/12 12:43:44;;;;;;;;;;;;;;;21.62;57.46;97008.19;597744;237;65406;-71
2023/09/12 12:46:13;;;;;;;;;;;;;;;21.63;57.22;97009.78;597359;237;67225;-70
2023/09/12 12:48:43;;;;;;;;;;;;;;;21.63;56.99;97000.96;597941;237;64981;-68
2023/09/12 12:51:19;;;;;;;;;;;;;;;21.64;57.12;96997.23;596757;237;64097;-70
2023/09/12 12:53:46;;;;;;;;;;;;;;;21.65;57.00;96998.82;596585;237;67283;-72